»·PEaware :: N799DS KBFL-KSBA

N799DS :: KBFL-KSBA

FLIGHT INFORMATION

Flight Status: Arrived
Operator: Privately registered:
United States
More flights under this callsign
Pilot: Wolfgang B. (15069)
Aircraft: CESSNA 172 SKYHAWK
(C172)
More flights by this aircraft type
Origin: KBFL Meadows
United States
Destination: KSBA Santa Barbara Mun
United States
More flights between these airports :: More routes between these airports
Route: MARIC4 MARIC V183 RZS
File this flight plan on PilotEdge
Remarks:
Altitude:
(Current/Filed)
10,000ft
Speed:
(Current/Filed)
120kts
Departed: 03-Apr-20 01:30 PM
Arrived: 03-Apr-20 02:19 PM
Distance/Time
Traveled:
71nm/0:48
Distance/Time
To Go:
Arrived

Flight Plot

Page will automatically refresh every two minutes.


Map Options




Map Legend


Flown Route
Filed Route
Departure Airport
Arrival Airport
Navaid (VOR, NDB)
Fix

Horizontal Profiles

Position Reports

Time Latitude Longitude Heading Altitude Ground
Speed
03-Apr-20 13:07 35.429367 -119.046106 226 495ft 0kts
03-Apr-20 13:08 35.429367 -119.046106 226 495ft 0kts
03-Apr-20 13:09 35.429367 -119.046106 226 495ft 0kts
03-Apr-20 13:11 35.429367 -119.046106 226 495ft 0kts
03-Apr-20 13:12 35.429367 -119.046106 226 495ft 0kts
03-Apr-20 13:13 35.429367 -119.046106 0 495ft 0kts
03-Apr-20 13:14 35.429367 -119.046106 226 495ft 0kts
03-Apr-20 13:15 35.429367 -119.046106 226 495ft 0kts
03-Apr-20 13:16 35.429367 -119.046106 226 495ft 0kts
03-Apr-20 13:17 35.429367 -119.046106 226 495ft 0kts
03-Apr-20 13:18 35.429367 -119.046106 226 495ft 0kts
03-Apr-20 13:19 35.429367 -119.046106 226 495ft 0kts
03-Apr-20 13:20 35.429367 -119.046106 226 495ft 0kts
03-Apr-20 13:21 35.429367 -119.046106 226 495ft 0kts
03-Apr-20 13:22 35.429367 -119.046106 226 495ft 0kts
03-Apr-20 13:23 35.429367 -119.046106 226 495ft 0kts
03-Apr-20 13:24 35.427787 -119.046567 141 486ft 16kts
03-Apr-20 13:25 35.425292 -119.044537 281 478ft 0kts
03-Apr-20 13:26 35.425295 -119.044552 281 478ft 0kts
03-Apr-20 13:27 35.425295 -119.044553 281 478ft 0kts
03-Apr-20 13:27 35.425295 -119.044553 281 478ft 0kts
03-Apr-20 13:29 35.425529 -119.046014 291 476ft 15kts
03-Apr-20 13:30 35.434207 -119.055821 316 847ft 70kts
03-Apr-20 13:30 35.446585 -119.068276 303 1577ft 69kts
03-Apr-20 13:32 35.441042 -119.093652 252 2547ft 67kts
03-Apr-20 13:33 35.433547 -119.114997 252 3311ft 68kts
03-Apr-20 13:33 35.425460 -119.131604 226 3916ft 73kts
03-Apr-20 13:34 35.408537 -119.146238 222 4619ft 75kts
03-Apr-20 13:36 35.387766 -119.162596 221 5452ft 77kts
03-Apr-20 13:36 35.372544 -119.174093 221 6007ft 78kts
03-Apr-20 13:37 35.353824 -119.187883 221 6636ft 79kts
03-Apr-20 13:38 35.334718 -119.201692 221 7260ft 80kts
03-Apr-20 13:39 35.315322 -119.215550 221 7862ft 81kts
03-Apr-20 13:40 35.295621 -119.229529 221 8429ft 82kts
03-Apr-20 13:41 35.275629 -119.243651 221 8963ft 83kts
03-Apr-20 13:42 35.255353 -119.257930 222 9466ft 84kts
03-Apr-20 13:43 35.234880 -119.272317 222 9938ft 85kts
03-Apr-20 13:44 35.210543 -119.289660 219 10030ft 118kts
03-Apr-20 13:45 35.180952 -119.310390 218 10027ft 123kts
03-Apr-20 13:46 35.151143 -119.331211 218 10027ft 123kts
03-Apr-20 13:47 35.121291 -119.352020 218 10027ft 123kts
03-Apr-20 13:48 35.091519 -119.372771 218 10027ft 123kts
03-Apr-20 13:49 35.061839 -119.393422 218 10082ft 119kts
03-Apr-20 13:50 35.032578 -119.413782 218 10090ft 122kts
03-Apr-20 13:51 35.002829 -119.434462 218 10083ft 123kts
03-Apr-20 13:52 34.973031 -119.455163 218 10073ft 122kts
03-Apr-20 13:53 34.943476 -119.475670 218 10061ft 121kts
03-Apr-20 13:54 34.914211 -119.495971 217 10047ft 120kts
03-Apr-20 13:55 34.885033 -119.516134 217 10030ft 119kts
03-Apr-20 13:56 34.856198 -119.536022 217 10024ft 118kts
03-Apr-20 13:57 34.827611 -119.555552 217 10024ft 118kts
03-Apr-20 13:58 34.798822 -119.575100 217 10024ft 118kts
03-Apr-20 13:59 34.769995 -119.594673 217 10024ft 118kts
03-Apr-20 14:00 34.741295 -119.614156 217 10024ft 118kts
03-Apr-20 14:01 34.712605 -119.633612 217 10024ft 118kts
03-Apr-20 14:02 34.683794 -119.653189 216 9840ft 121kts
03-Apr-20 14:03 34.654274 -119.673201 216 9246ft 121kts
03-Apr-20 14:04 34.625182 -119.692804 215 9027ft 117kts
03-Apr-20 14:05 34.597281 -119.711625 215 8872ft 117kts
03-Apr-20 14:06 34.570383 -119.734158 240 8140ft 114kts
03-Apr-20 14:07 34.553742 -119.767700 239 7347ft 121kts
03-Apr-20 14:08 34.539272 -119.800868 242 6842ft 110kts
03-Apr-20 14:09 34.521955 -119.831866 206 6142ft 116kts
03-Apr-20 14:10 34.492675 -119.842180 192 5357ft 102kts
03-Apr-20 14:11 34.465672 -119.846242 174 4551ft 98kts
03-Apr-20 14:12 34.469908 -119.820708 359 3738ft 118kts
03-Apr-20 14:13 34.474175 -119.843011 185 2977ft 90kts
03-Apr-20 14:14 34.450274 -119.842683 176 2091ft 84kts
03-Apr-20 14:15 34.452836 -119.822433 4 1093ft 92kts
03-Apr-20 14:16 34.455482 -119.839580 191 810ft 74kts
03-Apr-20 14:17 34.437193 -119.842413 161 199ft 64kts
03-Apr-20 14:18 34.423303 -119.838057 166 13ft 28kts
03-Apr-20 14:19 34.422661 -119.837313 30 13ft 0kts
03-Apr-20 14:20 34.425678 -119.838025 345 12ft 18kts
03-Apr-20 14:21 34.430564 -119.839509 354 14ft 17kts
03-Apr-20 14:22 34.432064 -119.835406 39 14ft 11kts
03-Apr-20 14:23 34.432407 -119.835808 149 14ft 0kts
03-Apr-20 14:24 34.432407 -119.835808 149 14ft 0kts
03-Apr-20 14:25 34.432407 -119.835808 149 14ft 0kts
03-Apr-20 14:26 34.432407 -119.835808 149 14ft 0kts
03-Apr-20 14:27 34.432407 -119.835808 149 14ft 0kts

Navigation Log

Ident Type
Flight plan parsing failed, navigation log unavailable